Time;durP1;ratioP1;P1;durP2;ratioP2;P2;SDS_P1;SDS_P2;PMS_P1;PMS_P2;Temp;Humidity;BMP_temperature;BMP_pressure;BME280_temperature;BME280_humidity;BME280_pressure;Samples;Min_cycle;Max_cycle;Signal;HPM_P1;HPM_P2
2021/12/02 00:02:38;;;;;;;20.35;14.02;;;;;;;;;;6227401;28;20056;-73
2021/12/02 00:05:40;;;;;;;20.90;14.13;;;;;;;;;;6243853;28;20075;-74
2021/12/02 00:08:42;;;;;;;21.20;13.90;;;;;;;;;;6246957;28;20053;-74
2021/12/02 00:11:43;;;;;;;21.98;14.43;;;;;;;;;;6247426;28;20172;-73
2021/12/02 00:14:48;;;;;;;20.33;13.85;;;;;;;;;;6258230;28;20108;-75
2021/12/02 00:17:56;;;;;;;20.35;14.60;;;;;;;;;;6237541;28;20048;-67
2021/12/02 00:21:05;;;;;;;20.13;14.25;;;;;;;;;;6241760;28;20515;-73
2021/12/02 00:24:08;;;;;;;24.40;15.98;;;;;;;;;;6264893;28;20496;-72
2021/12/02 00:27:10;;;;;;;26.33;15.45;;;;;;;;;;6242813;28;20441;-73
2021/12/02 00:30:13;;;;;;;24.75;15.40;;;;;;;;;;6248564;28;20064;-76
2021/12/02 00:33:17;;;;;;;24.42;16.13;;;;;;;;;;6254608;28;20045;-74
2021/12/02 00:36:19;;;;;;;24.70;15.85;;;;;;;;;;6246085;28;20048;-74
2021/12/02 00:39:20;;;;;;;23.77;15.73;;;;;;;;;;6264375;28;20041;-72
2021/12/02 00:42:22;;;;;;;23.50;15.63;;;;;;;;;;6242673;28;20054;-73
2021/12/02 00:45:26;;;;;;;23.65;16.30;;;;;;;;;;6236635;28;20092;-75
2021/12/02 00:48:28;;;;;;;22.17;16.17;;;;;;;;;;6246661;28;20567;-74
2021/12/02 00:51:30;;;;;;;27.58;17.05;;;;;;;;;;6240873;28;20049;-73
2021/12/02 00:54:32;;;;;;;24.95;17.05;;;;;;;;;;6259445;28;20072;-74
2021/12/02 00:57:34;;;;;;;26.75;17.35;;;;;;;;;;6244442;28;20461;-75
2021/12/02 01:00:36;;;;;;;24.75;16.92;;;;;;;;;;6250032;28;20057;-75
2021/12/02 01:03:38;;;;;;;24.73;16.38;;;;;;;;;;6257181;28;20166;-75
2021/12/02 01:06:40;;;;;;;24.88;17.48;;;;;;;;;;6254391;28;20057;-75
2021/12/02 01:09:41;;;;;;;24.05;17.15;;;;;;;;;;6257293;28;20049;-75
2021/12/02 01:12:43;;;;;;;24.35;16.77;;;;;;;;;;6244090;28;20049;-75
2021/12/02 01:15:46;;;;;;;25.58;17.75;;;;;;;;;;6227043;28;20049;-75
2021/12/02 01:18:47;;;;;;;27.15;18.88;;;;;;;;;;6249816;28;20056;-75
2021/12/02 01:21:49;;;;;;;27.38;18.42;;;;;;;;;;6235706;28;20057;-75
2021/12/02 01:24:52;;;;;;;28.20;19.35;;;;;;;;;;6246030;28;20128;-75
2021/12/02 01:27:53;;;;;;;26.95;18.15;;;;;;;;;;6242362;28;20168;-75
2021/12/02 01:30:56;;;;;;;25.52;17.33;;;;;;;;;;6232943;28;20441;-74
2021/12/02 01:34:00;;;;;;;27.77;18.27;;;;;;;;;;6245618;28;20049;-75
2021/12/02 01:37:02;;;;;;;24.23;17.15;;;;;;;;;;6240251;28;20057;-74
2021/12/02 01:40:04;;;;;;;25.77;18.13;;;;;;;;;;6255911;28;20049;-77
2021/12/02 01:43:06;;;;;;;25.35;16.40;;;;;;;;;;6248630;28;20053;-75
2021/12/02 01:46:09;;;;;;;27.33;18.08;;;;;;;;;;6239731;28;20064;-75
2021/12/02 01:49:11;;;;;;;27.60;17.20;;;;;;;;;;6248714;28;20075;-75
2021/12/02 01:52:14;;;;;;;26.55;17.02;;;;;;;;;;6242915;28;20046;-73
2021/12/02 01:55:16;;;;;;;28.83;17.17;;;;;;;;;;6241742;28;20425;-77
2021/12/02 01:58:21;;;;;;;28.27;17.02;;;;;;;;;;6251412;28;20058;-73
2021/12/02 02:01:24;;;;;;;24.33;16.67;;;;;;;;;;6249095;28;20652;-73
2021/12/02 02:04:26;;;;;;;25.30;15.95;;;;;;;;;;6271321;28;20129;-73
2021/12/02 02:07:28;;;;;;;24.98;16.63;;;;;;;;;;6238491;28;20045;-73
2021/12/02 02:10:30;;;;;;;25.08;17.42;;;;;;;;;;6245544;28;20862;-77
2021/12/02 02:13:32;;;;;;;25.80;18.15;;;;;;;;;;6257866;28;20482;-75
2021/12/02 02:16:35;;;;;;;24.88;17.17;;;;;;;;;;6235778;28;20041;-74
2021/12/02 02:22:19;;;;;;;25.00;17.67;;;;;;;;;;6275957;27;20755;-74
2021/12/02 02:25:21;;;;;;;23.63;17.25;;;;;;;;;;6288368;28;20044;-74
2021/12/02 02:28:23;;;;;;;27.48;17.05;;;;;;;;;;6273357;28;20041;-74
2021/12/02 02:31:25;;;;;;;24.95;17.70;;;;;;;;;;6262590;28;20094;-74
2021/12/02 02:34:27;;;;;;;27.00;17.67;;;;;;;;;;6278508;28;20057;-74
2021/12/02 02:37:33;;;;;;;28.23;17.95;;;;;;;;;;6259408;28;20390;-73
2021/12/02 02:40:36;;;;;;;24.70;18.35;;;;;;;;;;6253533;28;20053;-74
2021/12/02 02:43:38;;;;;;;26.58;18.02;;;;;;;;;;6259321;28;20184;-73
2021/12/02 02:46:42;;;;;;;28.23;18.17;;;;;;;;;;6257291;28;20109;-73
2021/12/02 02:49:43;;;;;;;25.75;17.88;;;;;;;;;;6264226;28;20053;-74
2021/12/02 02:52:47;;;;;;;30.80;18.20;;;;;;;;;;6261760;28;20076;-75
2021/12/02 02:55:57;;;;;;;26.45;17.42;;;;;;;;;;6258176;28;20049;-73
2021/12/02 02:59:07;;;;;;;24.88;17.65;;;;;;;;;;6270353;28;20045;-74
2021/12/02 03:02:16;;;;;;;26.25;18.15;;;;;;;;;;6265165;28;20045;-73
2021/12/02 03:05:26;;;;;;;27.02;17.20;;;;;;;;;;6251301;28;20461;-74
2021/12/02 03:08:37;;;;;;;23.55;16.77;;;;;;;;;;6269372;28;20258;-73
2021/12/02 03:11:44;;;;;;;26.45;17.38;;;;;;;;;;6256395;28;20056;-73
2021/12/02 03:16:37;;;;;;;25.38;17.48;;;;;;;;;;6263867;28;20404;-75
2021/12/02 03:18:13;;;;;;;25.98;16.67;;;;;;;;;;6267881;28;20048;-74
2021/12/02 03:21:19;;;;;;;24.08;17.20;;;;;;;;;;6252735;28;20057;-74
2021/12/02 03:24:23;;;;;;;27.70;18.20;;;;;;;;;;6264895;28;20053;-74
2021/12/02 03:27:25;;;;;;;25.98;17.75;;;;;;;;;;6252812;28;20445;-73
2021/12/02 03:30:26;;;;;;;28.17;17.13;;;;;;;;;;6254169;28;20784;-73
2021/12/02 03:33:28;;;;;;;24.63;17.48;;;;;;;;;;6232543;28;20624;-73
2021/12/02 03:36:29;;;;;;;28.10;17.83;;;;;;;;;;6240509;28;20132;-75
2021/12/02 03:39:32;;;;;;;27.45;17.75;;;;;;;;;;6247453;28;20145;-74
2021/12/02 03:42:34;;;;;;;25.80;17.17;;;;;;;;;;6237600;28;20045;-74
2021/12/02 03:45:37;;;;;;;25.75;16.80;;;;;;;;;;6237072;28;20188;-75
2021/12/02 03:48:39;;;;;;;29.17;18.73;;;;;;;;;;6240789;28;20057;-73
2021/12/02 03:51:41;;;;;;;23.98;17.27;;;;;;;;;;6236047;28;20096;-74
2021/12/02 03:54:44;;;;;;;26.50;17.77;;;;;;;;;;6250661;28;20131;-73
2021/12/02 03:57:45;;;;;;;25.70;18.27;;;;;;;;;;6233025;28;20053;-73
2021/12/02 04:00:47;;;;;;;25.40;17.40;;;;;;;;;;6233667;28;20115;-74
2021/12/02 04:03:50;;;;;;;28.25;17.33;;;;;;;;;;6236812;28;20081;-73
2021/12/02 04:06:51;;;;;;;27.40;17.75;;;;;;;;;;6234498;28;20575;-74
2021/12/02 04:09:55;;;;;;;23.75;17.38;;;;;;;;;;6243235;28;20803;-73
2021/12/02 04:13:04;;;;;;;25.27;16.85;;;;;;;;;;6234762;28;20045;-73
2021/12/02 04:16:14;;;;;;;24.35;17.85;;;;;;;;;;6229834;28;22408;-74
2021/12/02 04:19:15;;;;;;;28.30;18.33;;;;;;;;;;6240556;28;20045;-74
2021/12/02 04:22:17;;;;;;;26.25;18.08;;;;;;;;;;6232634;28;20480;-74
2021/12/02 04:25:21;;;;;;;26.67;17.73;;;;;;;;;;6230281;28;20080;-74
2021/12/02 04:28:22;;;;;;;23.52;17.30;;;;;;;;;;6235254;28;20112;-73
2021/12/02 04:31:24;;;;;;;25.30;16.63;;;;;;;;;;6230513;28;20502;-74
2021/12/02 04:34:26;;;;;;;23.00;16.38;;;;;;;;;;6238993;28;20980;-74
2021/12/02 04:37:28;;;;;;;25.40;17.65;;;;;;;;;;6231415;28;20038;-74
2021/12/02 04:40:31;;;;;;;25.95;17.92;;;;;;;;;;6230134;28;20277;-77
2021/12/02 04:43:32;;;;;;;24.73;17.58;;;;;;;;;;6238104;28;20212;-74
2021/12/02 04:46:34;;;;;;;24.05;16.40;;;;;;;;;;6225723;28;20184;-74
2021/12/02 04:49:36;;;;;;;28.55;17.73;;;;;;;;;;6258999;28;20409;-74
2021/12/02 04:52:38;;;;;;;27.92;17.77;;;;;;;;;;6227655;28;20042;-75
2021/12/02 04:55:41;;;;;;;25.85;17.58;;;;;;;;;;6236175;28;20187;-73
2021/12/02 04:58:43;;;;;;;23.17;17.00;;;;;;;;;;6240891;28;20128;-75
2021/12/02 05:01:44;;;;;;;25.95;18.15;;;;;;;;;;6218247;28;20121;-75
2021/12/02 05:04:46;;;;;;;26.67;17.70;;;;;;;;;;6236742;28;20119;-75
2021/12/02 05:07:49;;;;;;;26.85;18.45;;;;;;;;;;6230230;28;20128;-75
2021/12/02 05:10:52;;;;;;;27.40;17.83;;;;;;;;;;6231583;28;20513;-76
2021/12/02 05:13:53;;;;;;;25.63;18.38;;;;;;;;;;6244772;28;20046;-77
2021/12/02 05:16:55;;;;;;;26.92;18.55;;;;;;;;;;6227013;28;20133;-76
2021/12/02 05:19:57;;;;;;;27.48;18.80;;;;;;;;;;6230035;28;20128;-79
2021/12/02 05:22:58;;;;;;;26.40;18.08;;;;;;;;;;6221531;28;20049;-76
2021/12/02 05:26:01;;;;;;;26.30;18.05;;;;;;;;;;6228975;28;20144;-76
2021/12/02 05:29:03;;;;;;;26.45;18.75;;;;;;;;;;6240250;28;20199;-76
2021/12/02 05:32:05;;;;;;;26.02;18.83;;;;;;;;;;6224650;28;20544;-75
2021/12/02 05:35:08;;;;;;;27.75;18.65;;;;;;;;;;6234683;28;20054;-79
2021/12/02 05:38:09;;;;;;;28.70;18.45;;;;;;;;;;6235990;28;20262;-75
2021/12/02 05:41:15;;;;;;;29.65;19.67;;;;;;;;;;6215960;28;20042;-75
2021/12/02 05:44:16;;;;;;;30.67;19.38;;;;;;;;;;6241763;28;20510;-75
2021/12/02 05:47:18;;;;;;;30.20;19.75;;;;;;;;;;6221651;28;20133;-75
2021/12/02 05:50:19;;;;;;;28.80;19.95;;;;;;;;;;6226214;28;20057;-75
2021/12/02 05:53:22;;;;;;;30.75;19.67;;;;;;;;;;6236969;28;20791;-79
2021/12/02 05:56:25;;;;;;;26.95;18.75;;;;;;;;;;6232714;28;20473;-77
2021/12/02 05:59:26;;;;;;;28.98;20.13;;;;;;;;;;6238169;28;20676;-73
2021/12/02 06:02:28;;;;;;;31.17;20.23;;;;;;;;;;6223775;28;20094;-72
2021/12/02 06:05:30;;;;;;;27.65;19.85;;;;;;;;;;6232435;28;20042;-79
2021/12/02 06:08:31;;;;;;;32.90;20.77;;;;;;;;;;6237703;28;20088;-74
2021/12/02 06:11:34;;;;;;;30.90;20.38;;;;;;;;;;6228030;28;20515;-75
2021/12/02 06:14:36;;;;;;;32.38;20.27;;;;;;;;;;6235794;28;20049;-75
2021/12/02 06:17:40;;;;;;;34.08;20.95;;;;;;;;;;6216870;28;20140;-76
2021/12/02 06:20:42;;;;;;;32.40;21.48;;;;;;;;;;6228360;28;20033;-76
2021/12/02 06:23:43;;;;;;;32.72;21.80;;;;;;;;;;6233740;28;20078;-75
2021/12/02 06:26:46;;;;;;;31.17;21.00;;;;;;;;;;6232728;28;20111;-75
2021/12/02 06:29:48;;;;;;;31.63;20.88;;;;;;;;;;6239489;28;20077;-75
2021/12/02 06:32:49;;;;;;;34.70;21.88;;;;;;;;;;6229530;28;20141;-76
2021/12/02 06:35:52;;;;;;;34.00;22.10;;;;;;;;;;6220780;28;20349;-76
2021/12/02 06:38:54;;;;;;;34.00;20.90;;;;;;;;;;6237733;28;20096;-77
2021/12/02 06:41:57;;;;;;;30.73;20.67;;;;;;;;;;6240828;28;20133;-75
2021/12/02 06:44:59;;;;;;;32.85;20.92;;;;;;;;;;6245457;28;20701;-75
2021/12/02 06:48:00;;;;;;;30.67;20.85;;;;;;;;;;6228583;28;20459;-75
2021/12/02 06:51:02;;;;;;;27.55;20.55;;;;;;;;;;6229191;28;20057;-76
2021/12/02 06:54:04;;;;;;;29.55;20.40;;;;;;;;;;6242446;28;20104;-75
2021/12/02 06:57:08;;;;;;;28.80;20.23;;;;;;;;;;6222891;28;20528;-76
2021/12/02 07:00:12;;;;;;;30.08;18.63;;;;;;;;;;6236101;28;20128;-77
2021/12/02 07:03:14;;;;;;;33.60;18.40;;;;;;;;;;6230267;28;20211;-75
2021/12/02 07:06:16;;;;;;;27.75;18.25;;;;;;;;;;6227363;28;20137;-74
2021/12/02 07:09:17;;;;;;;27.85;18.13;;;;;;;;;;6244036;28;20529;-77
2021/12/02 07:12:28;;;;;;;28.17;18.33;;;;;;;;;;6237261;28;20196;-75
2021/12/02 07:15:33;;;;;;;28.48;18.42;;;;;;;;;;6235082;28;20115;-77
2021/12/02 07:18:38;;;;;;;28.35;19.25;;;;;;;;;;6237841;28;20052;-74
2021/12/02 07:21:41;;;;;;;25.48;18.23;;;;;;;;;;6234826;28;20041;-75
2021/12/02 07:24:43;;;;;;;27.20;18.00;;;;;;;;;;6245439;28;20453;-76
2021/12/02 07:27:47;;;;;;;28.98;17.55;;;;;;;;;;6231410;28;20110;-76
2021/12/02 07:30:52;;;;;;;27.63;17.75;;;;;;;;;;6217269;28;20042;-74
2021/12/02 07:33:54;;;;;;;27.15;19.17;;;;;;;;;;6234162;28;20128;-76
2021/12/02 07:36:56;;;;;;;30.42;19.60;;;;;;;;;;6234122;28;20485;-76
2021/12/02 07:39:59;;;;;;;26.73;17.67;;;;;;;;;;6244090;28;20052;-76
2021/12/02 07:43:03;;;;;;;27.52;18.08;;;;;;;;;;6229500;28;20678;-75
2021/12/02 07:46:05;;;;;;;28.23;17.85;;;;;;;;;;6224751;28;20557;-76
2021/12/02 07:49:07;;;;;;;29.20;18.73;;;;;;;;;;6236816;28;20061;-76
2021/12/02 07:52:09;;;;;;;28.73;18.60;;;;;;;;;;6231109;28;20503;-75
2021/12/02 07:55:13;;;;;;;26.75;18.52;;;;;;;;;;6228983;28;20108;-77
2021/12/02 07:58:17;;;;;;;29.52;18.33;;;;;;;;;;6236619;28;21067;-76
2021/12/02 08:01:19;;;;;;;;;;;;;;;;;;6225073;28;20045;-77
2021/12/02 08:04:20;;;;;;;26.35;17.65;;;;;;;;;;6227965;28;19948;-76
2021/12/02 08:07:22;;;;;;;33.38;18.30;;;;;;;;;;6227393;28;20061;-77
2021/12/02 08:10:24;;;;;;;26.50;17.55;;;;;;;;;;6224625;28;20053;-76
2021/12/02 08:13:30;;;;;;;28.63;17.63;;;;;;;;;;6229176;28;20127;-75
2021/12/02 08:16:32;;;;;;;27.35;18.02;;;;;;;;;;6222531;28;20527;-77
2021/12/02 08:19:33;;;;;;;24.73;17.13;;;;;;;;;;6235650;28;20057;-77
2021/12/02 08:22:35;;;;;;;24.92;16.77;;;;;;;;;;6225364;28;20129;-75
2021/12/02 08:25:37;;;;;;;27.35;17.17;;;;;;;;;;6233354;28;20118;-75
2021/12/02 08:28:39;;;;;;;26.77;17.52;;;;;;;;;;6248714;28;20140;-76
2021/12/02 08:31:41;;;;;;;25.63;16.58;;;;;;;;;;6235629;28;20103;-76
2021/12/02 08:34:43;;;;;;;23.40;16.70;;;;;;;;;;6243106;28;20116;-76
2021/12/02 08:37:46;;;;;;;26.35;17.77;;;;;;;;;;6222587;28;20067;-75
2021/12/02 08:40:49;;;;;;;25.38;17.33;;;;;;;;;;6224939;28;20121;-76
2021/12/02 08:43:53;;;;;;;24.55;17.30;;;;;;;;;;6229370;28;20505;-76
2021/12/02 08:46:55;;;;;;;24.58;18.13;;;;;;;;;;6213617;28;20458;-75
2021/12/02 08:49:58;;;;;;;29.98;16.73;;;;;;;;;;6233051;28;20045;-78
2021/12/02 08:53:01;;;;;;;22.40;16.63;;;;;;;;;;6223929;28;20084;-76
2021/12/02 08:56:02;;;;;;;25.33;17.73;;;;;;;;;;6230866;28;20508;-77
2021/12/02 08:59:05;;;;;;;24.08;17.55;;;;;;;;;;6240251;28;20464;-76
2021/12/02 09:02:07;;;;;;;23.95;17.02;;;;;;;;;;6228578;28;20037;-76
2021/12/02 09:05:09;;;;;;;24.25;16.80;;;;;;;;;;6230990;28;20480;-78
2021/12/02 09:08:11;;;;;;;23.00;16.88;;;;;;;;;;6222560;28;20207;-76
2021/12/02 09:11:13;;;;;;;26.67;16.33;;;;;;;;;;6228299;28;20449;-76
2021/12/02 09:14:16;;;;;;;22.50;16.75;;;;;;;;;;6239281;28;20065;-77
2021/12/02 09:17:18;;;;;;;23.80;16.43;;;;;;;;;;6224506;28;20084;-75
2021/12/02 09:20:20;;;;;;;24.92;16.23;;;;;;;;;;6227152;28;20485;-76
2021/12/02 09:23:22;;;;;;;25.05;17.10;;;;;;;;;;6239069;28;20392;-76
2021/12/02 09:26:23;;;;;;;22.85;16.90;;;;;;;;;;6229486;28;20177;-76
2021/12/02 09:29:26;;;;;;;22.60;16.80;;;;;;;;;;6240714;28;20065;-76
2021/12/02 09:32:28;;;;;;;23.00;16.33;;;;;;;;;;6218847;28;20176;-75
2021/12/02 09:35:30;;;;;;;22.58;15.90;;;;;;;;;;6217173;28;20132;-76
2021/12/02 09:38:32;;;;;;;23.40;17.15;;;;;;;;;;6241472;28;20080;-76
2021/12/02 09:41:33;;;;;;;24.27;16.80;;;;;;;;;;6228272;28;20136;-75
2021/12/02 09:44:37;;;;;;;22.10;16.77;;;;;;;;;;6234430;28;20065;-76
2021/12/02 09:47:42;;;;;;;26.47;16.23;;;;;;;;;;6217796;28;20066;-75
2021/12/02 09:50:53;;;;;;;21.67;16.33;;;;;;;;;;6223622;28;20185;-75
2021/12/02 09:53:57;;;;;;;21.98;16.42;;;;;;;;;;6224680;28;20913;-76
2021/12/02 09:57:01;;;;;;;;;;;;;;;;;;6232603;28;20060;-75
2021/12/02 10:00:06;;;;;;;22.08;16.27;;;;;;;;;;6228700;28;19979;-76
2021/12/02 10:03:20;;;;;;;21.70;15.88;;;;;;;;;;6217288;28;20049;-76
2021/12/02 10:06:25;;;;;;;22.23;16.98;;;;;;;;;;6217336;28;20049;-76
2021/12/02 10:09:36;;;;;;;26.08;16.80;;;;;;;;;;6248114;28;20041;-76
2021/12/02 10:12:47;;;;;;;21.45;16.17;;;;;;;;;;6238215;28;20083;-76
2021/12/02 10:16:05;;;;;;;22.40;15.77;;;;;;;;;;6223693;28;20132;-77
2021/12/02 10:19:09;;;;;;;22.05;16.77;;;;;;;;;;6228900;28;20128;-75
2021/12/02 10:22:12;;;;;;;25.45;16.10;;;;;;;;;;6219039;28;20058;-75
2021/12/02 10:25:29;;;;;;;26.67;15.90;;;;;;;;;;6215815;28;20053;-76
2021/12/02 10:28:35;;;;;;;23.60;15.55;;;;;;;;;;6235938;28;20136;-75
2021/12/02 10:31:38;;;;;;;20.65;15.88;;;;;;;;;;6249095;28;20131;-76
2021/12/02 10:34:52;;;;;;;19.67;16.80;;;;;;;;;;6254881;28;20049;-75
2021/12/02 10:37:53;;;;;;;19.83;15.80;;;;;;;;;;6233390;28;20470;-75
2021/12/02 10:40:58;;;;;;;22.73;16.23;;;;;;;;;;6254004;28;20128;-76
2021/12/02 10:44:13;;;;;;;18.60;16.27;;;;;;;;;;6270966;28;20044;-76
2021/12/02 10:47:19;;;;;;;21.58;15.88;;;;;;;;;;6253315;28;20106;-77
2021/12/02 10:50:22;;;;;;;21.13;16.30;;;;;;;;;;6261788;28;20496;-79
2021/12/02 10:53:24;;;;;;;22.35;16.33;;;;;;;;;;6265518;28;20126;-76
2021/12/02 10:56:32;;;;;;;19.70;15.40;;;;;;;;;;6261342;28;20052;-76
2021/12/02 10:59:37;;;;;;;18.55;15.48;;;;;;;;;;6270239;28;20435;-75
2021/12/02 11:02:46;;;;;;;24.23;16.83;;;;;;;;;;6243859;28;20144;-76
2021/12/02 11:05:48;;;;;;;18.17;15.52;;;;;;;;;;6256160;28;20056;-76
2021/12/02 11:08:50;;;;;;;18.73;15.63;;;;;;;;;;6270359;28;20139;-76
2021/12/02 11:12:22;;;;;;;18.23;14.30;;;;;;;;;;6259698;28;20179;-77
2021/12/02 11:15:25;;;;;;;26.90;14.95;;;;;;;;;;6255050;28;20551;-76
2021/12/02 11:18:33;;;;;;;19.20;14.83;;;;;;;;;;6263809;28;20142;-79
2021/12/02 11:21:37;;;;;;;18.65;14.55;;;;;;;;;;6235370;28;20448;-76
2021/12/02 11:24:39;;;;;;;17.13;15.02;;;;;;;;;;6266954;28;20045;-76
2021/12/02 11:27:43;;;;;;;15.93;13.60;;;;;;;;;;6253363;28;20112;-77
2021/12/02 11:30:44;;;;;;;18.23;13.80;;;;;;;;;;6250495;28;20056;-74
2021/12/02 11:33:49;;;;;;;23.80;14.50;;;;;;;;;;6251823;28;20138;-75
2021/12/02 11:36:51;;;;;;;19.08;14.57;;;;;;;;;;6260050;28;20099;-74
2021/12/02 11:39:55;;;;;;;17.48;14.13;;;;;;;;;;6248451;28;20164;-74
2021/12/02 11:42:57;;;;;;;16.90;15.10;;;;;;;;;;6251125;28;20493;-74
2021/12/02 11:46:00;;;;;;;21.30;14.88;;;;;;;;;;6244678;28;20040;-74
2021/12/02 11:49:03;;;;;;;21.02;14.98;;;;;;;;;;6257713;28;20053;-77
2021/12/02 11:52:05;;;;;;;22.43;15.43;;;;;;;;;;6258048;28;20091;-76
2021/12/02 11:55:10;;;;;;;21.45;14.95;;;;;;;;;;6256601;28;20116;-80
2021/12/02 11:58:11;;;;;;;17.92;14.25;;;;;;;;;;6255175;28;20042;-76
2021/12/02 12:01:15;;;;;;;17.27;14.27;;;;;;;;;;6247333;28;20172;-75
2021/12/02 12:04:18;;;;;;;17.73;13.18;;;;;;;;;;6252222;28;20619;-73
2021/12/02 12:07:21;;;;;;;17.70;14.77;;;;;;;;;;6248500;28;20677;-77
2021/12/02 12:10:28;;;;;;;19.58;15.07;;;;;;;;;;6260959;28;20052;-76
2021/12/02 12:13:30;;;;;;;22.00;15.20;;;;;;;;;;6262829;28;20568;-75
2021/12/02 12:16:34;;;;;;;17.77;14.75;;;;;;;;;;6245549;28;20466;-78
2021/12/02 12:19:43;;;;;;;;;;;;;;;;;;6260301;28;20071;-74
2021/12/02 12:22:45;;;;;;;15.10;13.35;;;;;;;;;;6245490;28;20341;-75
2021/12/02 12:25:47;;;;;;;16.73;13.63;;;;;;;;;;6242630;28;20508;-74
2021/12/02 12:29:18;;;;;;;16.52;13.77;;;;;;;;;;6252097;28;20080;-74
2021/12/02 12:32:34;;;;;;;17.48;13.88;;;;;;;;;;6251374;28;20044;-74
2021/12/02 12:35:49;;;;;;;17.33;14.25;;;;;;;;;;6257101;28;20357;-75
2021/12/02 12:38:51;;;;;;;19.02;13.30;;;;;;;;;;6254676;28;20500;-75
2021/12/02 12:42:21;;;;;;;16.77;13.52;;;;;;;;;;6245005;28;20696;-74
2021/12/02 12:45:29;;;;;;;17.50;14.07;;;;;;;;;;6248537;28;20053;-75
2021/12/02 12:48:31;;;;;;;17.40;13.05;;;;;;;;;;6249244;28;20084;-75
2021/12/02 12:51:36;;;;;;;20.65;13.15;;;;;;;;;;6249608;28;20090;-72
2021/12/02 12:54:38;;;;;;;70.15;41.85;;;;;;;;;;6260489;28;20503;-70
2021/12/02 12:58:07;;;;;;;43.08;27.83;;;;;;;;;;6247825;28;20068;-70
2021/12/02 13:01:21;;;;;;;17.38;14.30;;;;;;;;;;6268996;28;20052;-74
2021/12/02 13:04:25;;;;;;;16.85;13.38;;;;;;;;;;6266177;28;20162;-73
2021/12/02 13:07:28;;;;;;;18.00;12.52;;;;;;;;;;6258348;28;20052;-76
2021/12/02 13:10:30;;;;;;;17.45;13.20;;;;;;;;;;6261407;28;20857;-88
2021/12/02 13:13:34;;;;;;;18.17;13.57;;;;;;;;;;6264773;28;20045;-75
2021/12/02 13:16:37;;;;;;;21.30;12.57;;;;;;;;;;6262756;28;20072;-74
2021/12/02 13:19:57;;;;;;;17.48;12.65;;;;;;;;;;6261466;28;20132;-74
2021/12/02 13:23:27;;;;;;;18.55;12.20;;;;;;;;;;6263349;28;20132;-74
2021/12/02 13:26:30;;;;;;;17.88;13.15;;;;;;;;;;6263371;28;20084;-73
2021/12/02 13:29:34;;;;;;;16.50;12.65;;;;;;;;;;6255319;28;20041;-73
2021/12/02 13:32:36;;;;;;;15.35;12.57;;;;;;;;;;6265346;28;20041;-74
2021/12/02 13:35:37;;;;;;;16.60;12.43;;;;;;;;;;6257280;28;20724;-74
2021/12/02 13:38:44;;;;;;;15.52;11.90;;;;;;;;;;6250787;28;20049;-74
2021/12/02 13:41:51;;;;;;;13.93;11.63;;;;;;;;;;6253678;28;20042;-75
2021/12/02 13:44:55;;;;;;;15.45;10.95;;;;;;;;;;6256403;28;20049;-74
2021/12/02 13:48:12;;;;;;;16.98;11.43;;;;;;;;;;6235584;28;20132;-74
2021/12/02 13:54:32;;;;;;;14.57;11.27;;;;;;;;;;6252445;28;20386;-74
2021/12/02 13:57:37;;;;;;;16.95;11.55;;;;;;;;;;6260317;28;20055;-75
2021/12/02 14:00:42;;;;;;;14.82;11.57;;;;;;;;;;6250878;28;20049;-75
2021/12/02 14:03:44;;;;;;;16.05;11.13;;;;;;;;;;6264164;28;20057;-75
2021/12/02 14:06:48;;;;;;;16.35;11.38;;;;;;;;;;6251876;28;20076;-74
2021/12/02 14:09:56;;;;;;;14.30;11.63;;;;;;;;;;6246940;28;20049;-74
2021/12/02 14:20:11;;;;;;;14.20;11.00;;;;;;;;;;1170970;22;20316;-73
2021/12/02 14:23:14;;;;;;;15.20;10.73;;;;;;;;;;6295786;28;20048;-73
2021/12/02 14:26:19;;;;;;;17.17;11.75;;;;;;;;;;6286332;28;20045;-73
2021/12/02 14:29:20;;;;;;;15.40;12.30;;;;;;;;;;6291620;28;20072;-73
2021/12/02 14:32:31;;;;;;;16.42;12.07;;;;;;;;;;6288026;28;20206;-74
2021/12/02 14:35:42;;;;;;;17.00;12.60;;;;;;;;;;6262400;28;20045;-76
2021/12/02 14:38:45;;;;;;;16.38;11.88;;;;;;;;;;6284345;28;20099;-78
2021/12/02 14:41:50;;;;;;;16.17;13.15;;;;;;;;;;6277434;28;20060;-75
2021/12/02 14:44:51;;;;;;;15.35;12.30;;;;;;;;;;6296913;28;20124;-74
2021/12/02 14:47:53;;;;;;;19.05;13.70;;;;;;;;;;6283713;28;20492;-74
2021/12/02 14:51:00;;;;;;;20.38;14.20;;;;;;;;;;6286757;28;20119;-74
2021/12/02 14:54:01;;;;;;;17.70;13.85;;;;;;;;;;6293420;28;20183;-74
2021/12/02 14:57:07;;;;;;;16.83;12.98;;;;;;;;;;6282923;28;20049;-75
2021/12/02 15:00:10;;;;;;;18.27;13.70;;;;;;;;;;6277371;28;20056;-85
2021/12/02 15:03:12;;;;;;;19.35;14.10;;;;;;;;;;6281698;28;20103;-76
2021/12/02 15:06:14;;;;;;;18.63;14.68;;;;;;;;;;6279355;28;20051;-76
2021/12/02 15:09:41;;;;;;;19.63;15.00;;;;;;;;;;6293398;28;20693;-75
2021/12/02 15:12:44;;;;;;;19.85;14.38;;;;;;;;;;6261293;28;20095;-74
2021/12/02 15:15:48;;;;;;;24.08;14.85;;;;;;;;;;6275687;28;20123;-75
2021/12/02 15:18:50;;;;;;;24.15;14.73;;;;;;;;;;6289524;28;20113;-75
2021/12/02 15:21:54;;;;;;;21.40;15.70;;;;;;;;;;6284252;28;20053;-76
2021/12/02 15:25:09;;;;;;;22.95;15.95;;;;;;;;;;6286401;28;20110;-74
2021/12/02 15:28:15;;;;;;;24.33;16.33;;;;;;;;;;6290763;28;20147;-74
2021/12/02 15:31:19;;;;;;;19.67;15.73;;;;;;;;;;6276952;28;20143;-74
2021/12/02 15:34:21;;;;;;;23.27;16.80;;;;;;;;;;6294722;28;20440;-74
2021/12/02 15:37:23;;;;;;;24.85;16.77;;;;;;;;;;6291660;28;20049;-84
2021/12/02 15:40:26;;;;;;;24.27;17.25;;;;;;;;;;6274819;28;20095;-75
2021/12/02 15:43:35;;;;;;;22.70;16.35;;;;;;;;;;6299419;28;20099;-78
2021/12/02 15:46:40;;;;;;;25.00;17.13;;;;;;;;;;6267329;28;20048;-75
2021/12/02 15:49:48;;;;;;;22.65;16.48;;;;;;;;;;6294313;28;20052;-73
2021/12/02 15:52:51;;;;;;;24.40;16.95;;;;;;;;;;6281799;28;20399;-73
2021/12/02 15:55:54;;;;;;;22.77;15.93;;;;;;;;;;6285858;28;20040;-73
2021/12/02 15:58:57;;;;;;;24.98;16.98;;;;;;;;;;6297134;28;20135;-73
2021/12/02 16:02:09;;;;;;;24.07;15.97;;;;;;;;;;6279736;28;20040;-73
2021/12/02 16:05:13;;;;;;;24.80;18.15;;;;;;;;;;6283058;28;20040;-83
2021/12/02 16:08:21;;;;;;;25.25;16.45;;;;;;;;;;6292717;28;20078;-74
2021/12/02 16:11:28;;;;;;;23.60;16.50;;;;;;;;;;6286359;28;20079;-74
2021/12/02 16:14:31;;;;;;;28.50;18.30;;;;;;;;;;6296071;28;20122;-73
2021/12/02 16:17:34;;;;;;;27.10;18.08;;;;;;;;;;6279640;28;20033;-72
2021/12/02 16:20:35;;;;;;;23.77;17.50;;;;;;;;;;6283091;28;20115;-73
2021/12/02 16:23:39;;;;;;;28.65;18.33;;;;;;;;;;6282746;28;20045;-72
2021/12/02 16:26:41;;;;;;;32.15;19.13;;;;;;;;;;6289795;28;20136;-74
2021/12/02 16:29:46;;;;;;;29.38;19.92;;;;;;;;;;6289428;28;20050;-76
2021/12/02 16:32:47;;;;;;;26.50;19.13;;;;;;;;;;6287156;28;20159;-79
2021/12/02 16:35:50;;;;;;;42.33;27.45;;;;;;;;;;6276671;28;20132;-72
2021/12/02 16:39:43;;;;;;;43.83;28.90;;;;;;;;;;6285599;28;20048;-71
2021/12/02 16:42:48;;;;;;;28.88;19.63;;;;;;;;;;6154491;28;20451;-71
2021/12/02 16:45:55;;;;;;;29.60;19.67;;;;;;;;;;6165835;28;20041;-70
2021/12/02 16:48:57;;;;;;;29.65;20.00;;;;;;;;;;6282118;28;20867;-75
2021/12/02 16:51:58;;;;;;;28.85;19.85;;;;;;;;;;6278357;28;20556;-74
2021/12/02 16:55:00;;;;;;;30.42;20.90;;;;;;;;;;6285861;28;20608;-73
2021/12/02 16:58:01;;;;;;;29.50;20.83;;;;;;;;;;6287969;28;20136;-77
2021/12/02 17:01:05;;;;;;;27.42;19.88;;;;;;;;;;6283907;28;20048;-74
2021/12/02 17:04:06;;;;;;;28.38;20.23;;;;;;;;;;6284218;28;20131;-73
2021/12/02 17:07:08;;;;;;;30.25;20.27;;;;;;;;;;6277366;28;20120;-74
2021/12/02 17:10:13;;;;;;;27.23;20.05;;;;;;;;;;6289706;28;20045;-81
2021/12/02 17:13:15;;;;;;;28.65;19.83;;;;;;;;;;6285602;28;20049;-74
2021/12/02 17:16:18;;;;;;;27.73;20.75;;;;;;;;;;6275937;28;20119;-74
2021/12/02 17:19:19;;;;;;;28.77;19.57;;;;;;;;;;6273517;28;20052;-73
2021/12/02 17:22:23;;;;;;;29.25;20.27;;;;;;;;;;6269666;28;20070;-74
2021/12/02 17:25:24;;;;;;;30.65;21.10;;;;;;;;;;6276696;28;21069;-74
2021/12/02 17:28:26;;;;;;;28.58;20.25;;;;;;;;;;6270577;28;20127;-72
2021/12/02 17:31:29;;;;;;;28.17;19.48;;;;;;;;;;6273215;28;20186;-73
2021/12/02 17:34:32;;;;;;;30.08;21.17;;;;;;;;;;6279574;28;20049;-74
2021/12/02 17:37:35;;;;;;;30.23;21.08;;;;;;;;;;6263668;28;20435;-73
2021/12/02 17:40:39;;;;;;;29.27;21.00;;;;;;;;;;6265828;28;20206;-73
2021/12/02 17:43:46;;;;;;;29.42;21.10;;;;;;;;;;6274484;28;20041;-74
2021/12/02 17:46:49;;;;;;;28.30;20.10;;;;;;;;;;6263674;28;20037;-73
2021/12/02 17:49:51;;;;;;;32.97;20.98;;;;;;;;;;6284745;28;20076;-74
2021/12/02 17:52:53;;;;;;;29.45;20.27;;;;;;;;;;6281943;28;20053;-71
2021/12/02 17:55:55;;;;;;;30.30;20.08;;;;;;;;;;6279186;28;20055;-74
2021/12/02 17:58:57;;;;;;;39.90;26.90;;;;;;;;;;6280722;28;20513;-73
2021/12/02 18:02:00;;;;;;;52.00;33.78;;;;;;;;;;6250432;28;20377;-74
2021/12/02 18:05:04;;;;;;;34.55;23.02;;;;;;;;;;6279688;28;20187;-73
2021/12/02 18:08:06;;;;;;;30.42;20.63;;;;;;;;;;6272884;28;20037;-70